sensor_id;sensor_type;location;lat;lon;timestamp;P1;durP1;ratioP1;P2;durP2;ratioP2
18447;SDS011;9353;50.956;6.920;2022-08-26T00:01:47;5.90;;;5.28;;
18447;SDS011;9353;50.956;6.920;2022-08-26T00:04:15;7.07;;;5.28;;
18447;SDS011;9353;50.956;6.920;2022-08-26T00:06:42;5.07;;;4.55;;
18447;SDS011;9353;50.956;6.920;2022-08-26T00:09:10;7.78;;;5.32;;
18447;SDS011;9353;50.956;6.920;2022-08-26T00:11:37;8.35;;;5.15;;
18447;SDS011;9353;50.956;6.920;2022-08-26T00:14:05;8.35;;;6.65;;
18447;SDS011;9353;50.956;6.920;2022-08-26T00:16:32;11.60;;;7.75;;
18447;SDS011;9353;50.956;6.920;2022-08-26T00:18:59;9.38;;;8.13;;
18447;SDS011;9353;50.956;6.920;2022-08-26T00:21:26;9.73;;;8.85;;
18447;SDS011;9353;50.956;6.920;2022-08-26T00:23:53;11.30;;;10.23;;
18447;SDS011;9353;50.956;6.920;2022-08-26T00:26:22;11.02;;;10.20;;
18447;SDS011;9353;50.956;6.920;2022-08-26T00:28:49;12.45;;;11.27;;
18447;SDS011;9353;50.956;6.920;2022-08-26T00:31:16;14.48;;;13.38;;
18447;SDS011;9353;50.956;6.920;2022-08-26T00:33:43;15.63;;;14.02;;
18447;SDS011;9353;50.956;6.920;2022-08-26T00:36:10;15.55;;;14.45;;
18447;SDS011;9353;50.956;6.920;2022-08-26T00:38:38;17.30;;;16.10;;
18447;SDS011;9353;50.956;6.920;2022-08-26T00:41:05;20.67;;;18.90;;
18447;SDS011;9353;50.956;6.920;2022-08-26T00:43:34;20.88;;;19.27;;
18447;SDS011;9353;50.956;6.920;2022-08-26T00:46:04;26.15;;;23.25;;
18447;SDS011;9353;50.956;6.920;2022-08-26T00:48:33;29.13;;;26.35;;
18447;SDS011;9353;50.956;6.920;2022-08-26T00:51:03;37.20;;;33.25;;
18447;SDS011;9353;50.956;6.920;2022-08-26T00:53:31;38.88;;;32.80;;
18447;SDS011;9353;50.956;6.920;2022-08-26T00:56:02;35.90;;;32.30;;
18447;SDS011;9353;50.956;6.920;2022-08-26T00:58:30;37.83;;;33.72;;
18447;SDS011;9353;50.956;6.920;2022-08-26T01:00:59;38.75;;;34.33;;
18447;SDS011;9353;50.956;6.920;2022-08-26T01:03:27;38.10;;;33.53;;
18447;SDS011;9353;50.956;6.920;2022-08-26T01:05:56;44.22;;;36.97;;
18447;SDS011;9353;50.956;6.920;2022-08-26T01:08:24;40.80;;;34.90;;
18447;SDS011;9353;50.956;6.920;2022-08-26T01:10:52;41.00;;;36.75;;
18447;SDS011;9353;50.956;6.920;2022-08-26T01:13:19;42.55;;;38.00;;
18447;SDS011;9353;50.956;6.920;2022-08-26T01:15:48;42.40;;;37.85;;
18447;SDS011;9353;50.956;6.920;2022-08-26T01:18:18;41.15;;;37.08;;
18447;SDS011;9353;50.956;6.920;2022-08-26T01:20:46;41.83;;;37.65;;
18447;SDS011;9353;50.956;6.920;2022-08-26T01:23:18;47.15;;;39.85;;
18447;SDS011;9353;50.956;6.920;2022-08-26T01:25:45;48.60;;;42.40;;
18447;SDS011;9353;50.956;6.920;2022-08-26T01:28:14;46.55;;;41.35;;
18447;SDS011;9353;50.956;6.920;2022-08-26T01:30:42;49.55;;;41.55;;
18447;SDS011;9353;50.956;6.920;2022-08-26T01:33:15;48.63;;;43.45;;
18447;SDS011;9353;50.956;6.920;2022-08-26T01:35:43;44.40;;;39.90;;
18447;SDS011;9353;50.956;6.920;2022-08-26T01:38:10;52.85;;;44.50;;
18447;SDS011;9353;50.956;6.920;2022-08-26T01:40:39;51.85;;;46.00;;
18447;SDS011;9353;50.956;6.920;2022-08-26T01:43:08;56.80;;;46.13;;
18447;SDS011;9353;50.956;6.920;2022-08-26T01:45:39;55.92;;;47.35;;
18447;SDS011;9353;50.956;6.920;2022-08-26T01:48:07;51.00;;;45.47;;
18447;SDS011;9353;50.956;6.920;2022-08-26T01:50:36;55.20;;;47.00;;
18447;SDS011;9353;50.956;6.920;2022-08-26T01:53:05;52.47;;;43.83;;
18447;SDS011;9353;50.956;6.920;2022-08-26T01:55:33;55.17;;;47.45;;
18447;SDS011;9353;50.956;6.920;2022-08-26T01:58:04;55.00;;;47.95;;
18447;SDS011;9353;50.956;6.920;2022-08-26T02:00:32;59.92;;;46.95;;
18447;SDS011;9353;50.956;6.920;2022-08-26T02:03:00;52.63;;;45.05;;
18447;SDS011;9353;50.956;6.920;2022-08-26T02:05:42;55.95;;;45.70;;
18447;SDS011;9353;50.956;6.920;2022-08-26T02:08:10;56.70;;;49.15;;
18447;SDS011;9353;50.956;6.920;2022-08-26T02:10:38;50.90;;;45.47;;
18447;SDS011;9353;50.956;6.920;2022-08-26T02:13:07;54.58;;;44.72;;
18447;SDS011;9353;50.956;6.920;2022-08-26T02:15:34;56.35;;;47.55;;
18447;SDS011;9353;50.956;6.920;2022-08-26T02:18:02;49.72;;;43.60;;
18447;SDS011;9353;50.956;6.920;2022-08-26T02:20:30;54.20;;;43.55;;
18447;SDS011;9353;50.956;6.920;2022-08-26T02:22:57;51.80;;;45.42;;
18447;SDS011;9353;50.956;6.920;2022-08-26T02:25:26;49.55;;;42.33;;
18447;SDS011;9353;50.956;6.920;2022-08-26T02:27:54;49.55;;;44.17;;
18447;SDS011;9353;50.956;6.920;2022-08-26T02:30:23;51.28;;;44.03;;
18447;SDS011;9353;50.956;6.920;2022-08-26T02:32:51;48.58;;;42.90;;
18447;SDS011;9353;50.956;6.920;2022-08-26T02:35:19;45.00;;;40.05;;
18447;SDS011;9353;50.956;6.920;2022-08-26T02:37:47;52.65;;;42.70;;
18447;SDS011;9353;50.956;6.920;2022-08-26T02:40:15;47.50;;;41.00;;
18447;SDS011;9353;50.956;6.920;2022-08-26T02:42:42;45.17;;;39.75;;
18447;SDS011;9353;50.956;6.920;2022-08-26T02:45:10;50.53;;;41.13;;
18447;SDS011;9353;50.956;6.920;2022-08-26T02:47:38;45.33;;;39.17;;
18447;SDS011;9353;50.956;6.920;2022-08-26T02:50:06;42.70;;;38.13;;
18447;SDS011;9353;50.956;6.920;2022-08-26T02:52:33;46.20;;;41.08;;
18447;SDS011;9353;50.956;6.920;2022-08-26T02:55:00;45.33;;;40.47;;
18447;SDS011;9353;50.956;6.920;2022-08-26T02:57:27;44.20;;;39.55;;
18447;SDS011;9353;50.956;6.920;2022-08-26T02:59:55;41.22;;;36.70;;
18447;SDS011;9353;50.956;6.920;2022-08-26T03:02:22;42.30;;;37.75;;
18447;SDS011;9353;50.956;6.920;2022-08-26T03:04:51;41.30;;;36.75;;
18447;SDS011;9353;50.956;6.920;2022-08-26T03:07:18;40.85;;;36.35;;
18447;SDS011;9353;50.956;6.920;2022-08-26T03:09:45;41.97;;;37.40;;
18447;SDS011;9353;50.956;6.920;2022-08-26T03:12:12;46.38;;;37.63;;
18447;SDS011;9353;50.956;6.920;2022-08-26T03:14:39;43.73;;;36.93;;
18447;SDS011;9353;50.956;6.920;2022-08-26T03:17:06;40.88;;;36.38;;
18447;SDS011;9353;50.956;6.920;2022-08-26T03:19:33;40.83;;;36.53;;
18447;SDS011;9353;50.956;6.920;2022-08-26T03:22:02;41.67;;;36.85;;
18447;SDS011;9353;50.956;6.920;2022-08-26T03:24:29;41.13;;;36.72;;
18447;SDS011;9353;50.956;6.920;2022-08-26T03:26:56;38.80;;;34.55;;
18447;SDS011;9353;50.956;6.920;2022-08-26T03:29:23;38.38;;;33.97;;
18447;SDS011;9353;50.956;6.920;2022-08-26T03:32:08;39.42;;;35.15;;
18447;SDS011;9353;50.956;6.920;2022-08-26T03:34:35;39.85;;;34.20;;
18447;SDS011;9353;50.956;6.920;2022-08-26T03:37:04;41.97;;;35.45;;
18447;SDS011;9353;50.956;6.920;2022-08-26T03:39:31;42.65;;;35.25;;
18447;SDS011;9353;50.956;6.920;2022-08-26T03:41:58;39.45;;;33.10;;
18447;SDS011;9353;50.956;6.920;2022-08-26T03:44:25;38.33;;;34.03;;
18447;SDS011;9353;50.956;6.920;2022-08-26T03:46:53;40.00;;;33.35;;
18447;SDS011;9353;50.956;6.920;2022-08-26T03:49:20;36.78;;;32.78;;
18447;SDS011;9353;50.956;6.920;2022-08-26T03:51:47;45.17;;;34.33;;
18447;SDS011;9353;50.956;6.920;2022-08-26T03:54:16;37.60;;;33.27;;
18447;SDS011;9353;50.956;6.920;2022-08-26T03:56:43;38.10;;;31.73;;
18447;SDS011;9353;50.956;6.920;2022-08-26T03:59:11;36.10;;;32.08;;
18447;SDS011;9353;50.956;6.920;2022-08-26T04:01:38;37.60;;;32.27;;
18447;SDS011;9353;50.956;6.920;2022-08-26T04:04:05;35.63;;;31.63;;
18447;SDS011;9353;50.956;6.920;2022-08-26T04:06:33;37.75;;;30.65;;
18447;SDS011;9353;50.956;6.920;2022-08-26T04:09:02;38.60;;;31.85;;
18447;SDS011;9353;50.956;6.920;2022-08-26T04:11:31;44.47;;;33.30;;
18447;SDS011;9353;50.956;6.920;2022-08-26T04:14:00;36.40;;;30.83;;
18447;SDS011;9353;50.956;6.920;2022-08-26T04:16:28;34.95;;;28.92;;
18447;SDS011;9353;50.956;6.920;2022-08-26T04:18:56;38.38;;;31.02;;
18447;SDS011;9353;50.956;6.920;2022-08-26T04:21:23;34.92;;;29.85;;
18447;SDS011;9353;50.956;6.920;2022-08-26T04:23:51;32.50;;;28.90;;
18447;SDS011;9353;50.956;6.920;2022-08-26T04:26:18;36.92;;;29.58;;
18447;SDS011;9353;50.956;6.920;2022-08-26T04:28:47;36.05;;;28.35;;
18447;SDS011;9353;50.956;6.920;2022-08-26T04:31:15;32.53;;;28.33;;
18447;SDS011;9353;50.956;6.920;2022-08-26T04:33:44;31.83;;;28.07;;
18447;SDS011;9353;50.956;6.920;2022-08-26T04:36:11;29.70;;;26.17;;
18447;SDS011;9353;50.956;6.920;2022-08-26T04:38:39;29.80;;;26.67;;
18447;SDS011;9353;50.956;6.920;2022-08-26T04:41:06;35.58;;;25.83;;
18447;SDS011;9353;50.956;6.920;2022-08-26T04:43:35;32.85;;;25.88;;
18447;SDS011;9353;50.956;6.920;2022-08-26T04:46:03;32.92;;;26.20;;
18447;SDS011;9353;50.956;6.920;2022-08-26T04:48:31;31.00;;;24.73;;
18447;SDS011;9353;50.956;6.920;2022-08-26T04:50:59;30.70;;;25.02;;
18447;SDS011;9353;50.956;6.920;2022-08-26T04:53:28;33.13;;;24.40;;
18447;SDS011;9353;50.956;6.920;2022-08-26T04:55:55;24.75;;;22.33;;
18447;SDS011;9353;50.956;6.920;2022-08-26T04:58:23;26.00;;;23.23;;
18447;SDS011;9353;50.956;6.920;2022-08-26T05:00:51;25.30;;;22.97;;
18447;SDS011;9353;50.956;6.920;2022-08-26T05:03:20;24.55;;;22.05;;
18447;SDS011;9353;50.956;6.920;2022-08-26T05:05:48;24.60;;;21.88;;
18447;SDS011;9353;50.956;6.920;2022-08-26T05:08:16;24.98;;;21.27;;
18447;SDS011;9353;50.956;6.920;2022-08-26T05:10:44;23.80;;;21.45;;
18447;SDS011;9353;50.956;6.920;2022-08-26T05:13:12;27.00;;;22.00;;
18447;SDS011;9353;50.956;6.920;2022-08-26T05:15:39;24.27;;;21.87;;
18447;SDS011;9353;50.956;6.920;2022-08-26T05:18:07;24.77;;;20.97;;
18447;SDS011;9353;50.956;6.920;2022-08-26T05:20:38;21.50;;;19.27;;
18447;SDS011;9353;50.956;6.920;2022-08-26T05:23:06;21.73;;;19.53;;
18447;SDS011;9353;50.956;6.920;2022-08-26T05:25:35;23.33;;;19.40;;
18447;SDS011;9353;50.956;6.920;2022-08-26T05:28:02;21.90;;;19.85;;
18447;SDS011;9353;50.956;6.920;2022-08-26T05:30:30;20.73;;;18.52;;
18447;SDS011;9353;50.956;6.920;2022-08-26T05:32:57;21.75;;;19.48;;
18447;SDS011;9353;50.956;6.920;2022-08-26T05:35:26;22.87;;;19.77;;
18447;SDS011;9353;50.956;6.920;2022-08-26T05:37:57;21.75;;;19.13;;
18447;SDS011;9353;50.956;6.920;2022-08-26T05:40:25;19.50;;;17.60;;
18447;SDS011;9353;50.956;6.920;2022-08-26T05:42:52;19.20;;;17.40;;
18447;SDS011;9353;50.956;6.920;2022-08-26T05:45:20;20.00;;;17.00;;
18447;SDS011;9353;50.956;6.920;2022-08-26T05:47:48;18.83;;;17.00;;
18447;SDS011;9353;50.956;6.920;2022-08-26T05:50:15;19.30;;;17.40;;
18447;SDS011;9353;50.956;6.920;2022-08-26T05:52:46;18.05;;;16.13;;
18447;SDS011;9353;50.956;6.920;2022-08-26T05:55:14;17.88;;;16.25;;
18447;SDS011;9353;50.956;6.920;2022-08-26T05:57:42;15.77;;;14.00;;
18447;SDS011;9353;50.956;6.920;2022-08-26T06:00:09;17.63;;;14.65;;
18447;SDS011;9353;50.956;6.920;2022-08-26T06:02:37;17.30;;;13.93;;
18447;SDS011;9353;50.956;6.920;2022-08-26T06:05:04;17.05;;;15.45;;
18447;SDS011;9353;50.956;6.920;2022-08-26T06:07:32;16.55;;;14.85;;
18447;SDS011;9353;50.956;6.920;2022-08-26T06:10:18;15.30;;;14.05;;
18447;SDS011;9353;50.956;6.920;2022-08-26T06:12:45;16.23;;;13.23;;
18447;SDS011;9353;50.956;6.920;2022-08-26T06:15:12;13.70;;;12.57;;
18447;SDS011;9353;50.956;6.920;2022-08-26T06:17:39;14.20;;;13.25;;
18447;SDS011;9353;50.956;6.920;2022-08-26T06:20:07;16.30;;;13.88;;
18447;SDS011;9353;50.956;6.920;2022-08-26T06:22:34;14.00;;;12.43;;
18447;SDS011;9353;50.956;6.920;2022-08-26T06:25:20;18.00;;;12.05;;
18447;SDS011;9353;50.956;6.920;2022-08-26T06:28:03;14.50;;;12.05;;
18447;SDS011;9353;50.956;6.920;2022-08-26T06:30:30;13.98;;;12.15;;
18447;SDS011;9353;50.956;6.920;2022-08-26T06:32:57;14.93;;;11.90;;
18447;SDS011;9353;50.956;6.920;2022-08-26T06:35:25;13.17;;;11.80;;
18447;SDS011;9353;50.956;6.920;2022-08-26T06:37:52;12.03;;;11.20;;
18447;SDS011;9353;50.956;6.920;2022-08-26T06:40:21;13.00;;;11.73;;
18447;SDS011;9353;50.956;6.920;2022-08-26T06:42:48;13.60;;;11.85;;
18447;SDS011;9353;50.956;6.920;2022-08-26T06:45:15;12.90;;;11.50;;
18447;SDS011;9353;50.956;6.920;2022-08-26T06:47:42;13.07;;;11.45;;
18447;SDS011;9353;50.956;6.920;2022-08-26T06:50:09;11.67;;;10.97;;
18447;SDS011;9353;50.956;6.920;2022-08-26T06:52:39;12.30;;;11.15;;
18447;SDS011;9353;50.956;6.920;2022-08-26T06:55:07;11.73;;;10.93;;
18447;SDS011;9353;50.956;6.920;2022-08-26T06:57:36;12.20;;;11.40;;
18447;SDS011;9353;50.956;6.920;2022-08-26T07:00:03;12.52;;;11.13;;
18447;SDS011;9353;50.956;6.920;2022-08-26T07:02:31;12.93;;;11.60;;
18447;SDS011;9353;50.956;6.920;2022-08-26T07:04:58;13.52;;;11.93;;
18447;SDS011;9353;50.956;6.920;2022-08-26T07:07:25;12.43;;;11.23;;
18447;SDS011;9353;50.956;6.920;2022-08-26T07:09:53;12.13;;;11.27;;
18447;SDS011;9353;50.956;6.920;2022-08-26T07:12:20;13.93;;;12.73;;
18447;SDS011;9353;50.956;6.920;2022-08-26T07:14:48;17.35;;;12.50;;
18447;SDS011;9353;50.956;6.920;2022-08-26T07:17:16;13.93;;;12.60;;
18447;SDS011;9353;50.956;6.920;2022-08-26T07:19:43;12.02;;;10.82;;
18447;SDS011;9353;50.956;6.920;2022-08-26T07:22:10;12.43;;;11.35;;
18447;SDS011;9353;50.956;6.920;2022-08-26T07:24:38;12.15;;;11.35;;
18447;SDS011;9353;50.956;6.920;2022-08-26T07:27:07;12.50;;;11.55;;
18447;SDS011;9353;50.956;6.920;2022-08-26T07:29:34;14.10;;;12.97;;
18447;SDS011;9353;50.956;6.920;2022-08-26T07:32:04;12.63;;;11.77;;
18447;SDS011;9353;50.956;6.920;2022-08-26T07:34:31;13.33;;;12.23;;
18447;SDS011;9353;50.956;6.920;2022-08-26T07:36:58;13.95;;;12.60;;
18447;SDS011;9353;50.956;6.920;2022-08-26T07:39:26;13.38;;;12.35;;
18447;SDS011;9353;50.956;6.920;2022-08-26T07:41:53;12.95;;;12.13;;
18447;SDS011;9353;50.956;6.920;2022-08-26T07:44:20;15.25;;;13.95;;
18447;SDS011;9353;50.956;6.920;2022-08-26T07:46:48;13.90;;;12.70;;
18447;SDS011;9353;50.956;6.920;2022-08-26T07:49:16;14.05;;;12.68;;
18447;SDS011;9353;50.956;6.920;2022-08-26T07:51:43;18.00;;;12.90;;
18447;SDS011;9353;50.956;6.920;2022-08-26T07:54:10;13.45;;;12.25;;
18447;SDS011;9353;50.956;6.920;2022-08-26T07:56:37;13.77;;;12.63;;
18447;SDS011;9353;50.956;6.920;2022-08-26T07:59:05;17.33;;;14.27;;
18447;SDS011;9353;50.956;6.920;2022-08-26T08:01:32;15.07;;;13.73;;
18447;SDS011;9353;50.956;6.920;2022-08-26T08:03:59;14.38;;;13.30;;
18447;SDS011;9353;50.956;6.920;2022-08-26T08:06:29;15.30;;;13.53;;
18447;SDS011;9353;50.956;6.920;2022-08-26T08:08:57;19.23;;;13.00;;
18447;SDS011;9353;50.956;6.920;2022-08-26T08:11:25;15.40;;;13.90;;
18447;SDS011;9353;50.956;6.920;2022-08-26T08:13:55;15.00;;;13.77;;
18447;SDS011;9353;50.956;6.920;2022-08-26T08:16:24;13.57;;;12.33;;
18447;SDS011;9353;50.956;6.920;2022-08-26T08:18:52;13.93;;;12.52;;
18447;SDS011;9353;50.956;6.920;2022-08-26T08:21:20;12.93;;;11.82;;
18447;SDS011;9353;50.956;6.920;2022-08-26T08:23:49;12.53;;;11.47;;
18447;SDS011;9353;50.956;6.920;2022-08-26T08:26:16;13.02;;;12.32;;
18447;SDS011;9353;50.956;6.920;2022-08-26T08:28:43;11.40;;;10.35;;
18447;SDS011;9353;50.956;6.920;2022-08-26T08:31:17;10.75;;;9.95;;
18447;SDS011;9353;50.956;6.920;2022-08-26T08:33:44;12.43;;;11.57;;
18447;SDS011;9353;50.956;6.920;2022-08-26T08:36:11;14.65;;;13.02;;
18447;SDS011;9353;50.956;6.920;2022-08-26T08:38:40;16.38;;;14.40;;
18447;SDS011;9353;50.956;6.920;2022-08-26T08:41:14;14.73;;;13.63;;
18447;SDS011;9353;50.956;6.920;2022-08-26T08:43:44;14.70;;;13.27;;
18447;SDS011;9353;50.956;6.920;2022-08-26T08:46:13;13.50;;;12.27;;
18447;SDS011;9353;50.956;6.920;2022-08-26T08:48:41;14.88;;;13.80;;
18447;SDS011;9353;50.956;6.920;2022-08-26T08:51:13;18.42;;;13.13;;
18447;SDS011;9353;50.956;6.920;2022-08-26T08:53:44;12.95;;;11.95;;
18447;SDS011;9353;50.956;6.920;2022-08-26T08:56:16;13.45;;;12.10;;
18447;SDS011;9353;50.956;6.920;2022-08-26T08:58:51;13.10;;;12.05;;
18447;SDS011;9353;50.956;6.920;2022-08-26T09:01:23;12.20;;;11.27;;
18447;SDS011;9353;50.956;6.920;2022-08-26T09:03:53;12.48;;;11.38;;
18447;SDS011;9353;50.956;6.920;2022-08-26T09:06:21;11.98;;;10.98;;
18447;SDS011;9353;50.956;6.920;2022-08-26T09:08:48;10.88;;;9.88;;
18447;SDS011;9353;50.956;6.920;2022-08-26T09:11:18;10.93;;;9.60;;
18447;SDS011;9353;50.956;6.920;2022-08-26T09:13:47;10.67;;;9.87;;
18447;SDS011;9353;50.956;6.920;2022-08-26T09:16:15;10.00;;;9.50;;
18447;SDS011;9353;50.956;6.920;2022-08-26T09:18:48;11.18;;;10.07;;
18447;SDS011;9353;50.956;6.920;2022-08-26T09:21:18;11.35;;;10.30;;
18447;SDS011;9353;50.956;6.920;2022-08-26T09:23:47;10.20;;;9.60;;
18447;SDS011;9353;50.956;6.920;2022-08-26T09:26:16;11.27;;;10.27;;
18447;SDS011;9353;50.956;6.920;2022-08-26T09:28:45;9.77;;;9.00;;
18447;SDS011;9353;50.956;6.920;2022-08-26T09:31:14;9.32;;;8.60;;
18447;SDS011;9353;50.956;6.920;2022-08-26T09:33:45;8.80;;;8.05;;
18447;SDS011;9353;50.956;6.920;2022-08-26T09:36:17;12.30;;;8.87;;
18447;SDS011;9353;50.956;6.920;2022-08-26T09:38:47;11.50;;;10.50;;
18447;SDS011;9353;50.956;6.920;2022-08-26T09:41:22;9.70;;;8.95;;
18447;SDS011;9353;50.956;6.920;2022-08-26T09:44:10;10.43;;;9.82;;
18447;SDS011;9353;50.956;6.920;2022-08-26T09:46:38;10.00;;;9.33;;
18447;SDS011;9353;50.956;6.920;2022-08-26T09:52:05;10.23;;;8.65;;
18447;SDS011;9353;50.956;6.920;2022-08-26T09:54:33;8.70;;;8.10;;
18447;SDS011;9353;50.956;6.920;2022-08-26T09:57:12;9.60;;;8.75;;
18447;SDS011;9353;50.956;6.920;2022-08-26T09:59:41;9.70;;;9.00;;
18447;SDS011;9353;50.956;6.920;2022-08-26T10:04:56;9.65;;;9.13;;
18447;SDS011;9353;50.956;6.920;2022-08-26T10:07:33;10.13;;;8.88;;
18447;SDS011;9353;50.956;6.920;2022-08-26T10:10:01;9.55;;;8.63;;
18447;SDS011;9353;50.956;6.920;2022-08-26T10:12:28;9.25;;;8.52;;
18447;SDS011;9353;50.956;6.920;2022-08-26T10:15:00;8.55;;;7.75;;
18447;SDS011;9353;50.956;6.920;2022-08-26T10:17:30;8.77;;;7.97;;
18447;SDS011;9353;50.956;6.920;2022-08-26T10:20:00;8.02;;;7.43;;
18447;SDS011;9353;50.956;6.920;2022-08-26T10:22:32;8.25;;;7.65;;
18447;SDS011;9353;50.956;6.920;2022-08-26T10:25:02;7.47;;;6.50;;
18447;SDS011;9353;50.956;6.920;2022-08-26T10:27:33;8.77;;;7.95;;
18447;SDS011;9353;50.956;6.920;2022-08-26T10:30:05;8.20;;;6.47;;
18447;SDS011;9353;50.956;6.920;2022-08-26T10:32:35;6.65;;;5.97;;
18447;SDS011;9353;50.956;6.920;2022-08-26T10:35:03;7.18;;;6.65;;
18447;SDS011;9353;50.956;6.920;2022-08-26T10:37:33;6.72;;;6.07;;
18447;SDS011;9353;50.956;6.920;2022-08-26T10:40:04;6.80;;;6.00;;
18447;SDS011;9353;50.956;6.920;2022-08-26T10:42:33;6.85;;;6.13;;
18447;SDS011;9353;50.956;6.920;2022-08-26T10:45:03;7.03;;;6.33;;
18447;SDS011;9353;50.956;6.920;2022-08-26T10:47:33;8.20;;;6.28;;
18447;SDS011;9353;50.956;6.920;2022-08-26T10:50:02;8.98;;;5.32;;
18447;SDS011;9353;50.956;6.920;2022-08-26T10:52:36;5.55;;;5.13;;
18447;SDS011;9353;50.956;6.920;2022-08-26T10:55:10;6.47;;;5.88;;
18447;SDS011;9353;50.956;6.920;2022-08-26T10:57:40;5.93;;;5.35;;
18447;SDS011;9353;50.956;6.920;2022-08-26T11:00:10;5.60;;;5.15;;
18447;SDS011;9353;50.956;6.920;2022-08-26T11:02:58;6.07;;;5.47;;
18447;SDS011;9353;50.956;6.920;2022-08-26T11:05:28;6.95;;;5.13;;
18447;SDS011;9353;50.956;6.920;2022-08-26T11:16:26;7.85;;;5.78;;
18447;SDS011;9353;50.956;6.920;2022-08-26T11:18:58;5.22;;;4.72;;
18447;SDS011;9353;50.956;6.920;2022-08-26T11:26:58;7.28;;;4.28;;
18447;SDS011;9353;50.956;6.920;2022-08-26T11:32:22;5.43;;;4.95;;
18447;SDS011;9353;50.956;6.920;2022-08-26T11:34:52;4.93;;;4.60;;
18447;SDS011;9353;50.956;6.920;2022-08-26T11:37:20;4.60;;;4.30;;
18447;SDS011;9353;50.956;6.920;2022-08-26T11:39:49;4.60;;;4.30;;
18447;SDS011;9353;50.956;6.920;2022-08-26T11:42:20;6.63;;;4.65;;
18447;SDS011;9353;50.956;6.920;2022-08-26T11:44:51;7.82;;;3.80;;
18447;SDS011;9353;50.956;6.920;2022-08-26T11:47:24;4.68;;;4.28;;
18447;SDS011;9353;50.956;6.920;2022-08-26T11:50:05;4.55;;;4.25;;
18447;SDS011;9353;50.956;6.920;2022-08-26T11:52:33;4.40;;;4.10;;
18447;SDS011;9353;50.956;6.920;2022-08-26T11:55:01;4.43;;;4.03;;
18447;SDS011;9353;50.956;6.920;2022-08-26T11:57:29;6.75;;;4.18;;
18447;SDS011;9353;50.956;6.920;2022-08-26T11:59:58;4.18;;;3.78;;
18447;SDS011;9353;50.956;6.920;2022-08-26T12:02:26;4.05;;;3.75;;
18447;SDS011;9353;50.956;6.920;2022-08-26T12:04:53;6.38;;;4.32;;
18447;SDS011;9353;50.956;6.920;2022-08-26T12:07:24;5.13;;;4.18;;
18447;SDS011;9353;50.956;6.920;2022-08-26T12:09:53;4.47;;;4.13;;
18447;SDS011;9353;50.956;6.920;2022-08-26T12:12:23;4.72;;;4.32;;
18447;SDS011;9353;50.956;6.920;2022-08-26T12:15:03;6.43;;;4.28;;
18447;SDS011;9353;50.956;6.920;2022-08-26T12:17:30;4.93;;;4.03;;
18447;SDS011;9353;50.956;6.920;2022-08-26T12:19:57;8.05;;;4.30;;
18447;SDS011;9353;50.956;6.920;2022-08-26T12:22:26;5.15;;;3.65;;
18447;SDS011;9353;50.956;6.920;2022-08-26T12:24:54;7.53;;;3.88;;
18447;SDS011;9353;50.956;6.920;2022-08-26T12:27:23;3.72;;;3.38;;
18447;SDS011;9353;50.956;6.920;2022-08-26T12:30:03;4.97;;;3.22;;
18447;SDS011;9353;50.956;6.920;2022-08-26T12:32:31;3.92;;;3.13;;
18447;SDS011;9353;50.956;6.920;2022-08-26T12:34:59;5.10;;;3.40;;
18447;SDS011;9353;50.956;6.920;2022-08-26T12:37:28;3.80;;;3.00;;
18447;SDS011;9353;50.956;6.920;2022-08-26T12:40:04;7.50;;;3.08;;
18447;SDS011;9353;50.956;6.920;2022-08-26T12:42:44;6.32;;;3.20;;
18447;SDS011;9353;50.956;6.920;2022-08-26T12:45:11;3.25;;;2.67;;
18447;SDS011;9353;50.956;6.920;2022-08-26T12:47:39;4.35;;;3.33;;
18447;SDS011;9353;50.956;6.920;2022-08-26T12:50:08;3.63;;;2.83;;
18447;SDS011;9353;50.956;6.920;2022-08-26T12:52:38;6.00;;;3.40;;
18447;SDS011;9353;50.956;6.920;2022-08-26T12:55:21;4.15;;;3.33;;
18447;SDS011;9353;50.956;6.920;2022-08-26T12:57:50;3.47;;;3.20;;
18447;SDS011;9353;50.956;6.920;2022-08-26T13:00:36;6.30;;;2.95;;
18447;SDS011;9353;50.956;6.920;2022-08-26T13:03:25;6.45;;;3.85;;
18447;SDS011;9353;50.956;6.920;2022-08-26T13:05:51;7.88;;;3.58;;
18447;SDS011;9353;50.956;6.920;2022-08-26T13:08:23;4.10;;;3.70;;
18447;SDS011;9353;50.956;6.920;2022-08-26T13:11:00;3.00;;;2.65;;
18447;SDS011;9353;50.956;6.920;2022-08-26T13:13:30;4.38;;;2.78;;
18447;SDS011;9353;50.956;6.920;2022-08-26T13:15:57;7.35;;;2.75;;
18447;SDS011;9353;50.956;6.920;2022-08-26T13:18:24;4.30;;;3.78;;
18447;SDS011;9353;50.956;6.920;2022-08-26T13:20:52;3.42;;;2.33;;
18447;SDS011;9353;50.956;6.920;2022-08-26T13:23:19;3.13;;;2.40;;
18447;SDS011;9353;50.956;6.920;2022-08-26T13:25:47;5.80;;;3.05;;
18447;SDS011;9353;50.956;6.920;2022-08-26T13:28:14;4.13;;;2.65;;
18447;SDS011;9353;50.956;6.920;2022-08-26T13:30:43;4.93;;;3.03;;
18447;SDS011;9353;50.956;6.920;2022-08-26T13:33:11;4.38;;;2.60;;
18447;SDS011;9353;50.956;6.920;2022-08-26T13:35:40;7.50;;;2.85;;
18447;SDS011;9353;50.956;6.920;2022-08-26T13:38:07;3.63;;;2.20;;
18447;SDS011;9353;50.956;6.920;2022-08-26T13:40:38;3.15;;;2.58;;
18447;SDS011;9353;50.956;6.920;2022-08-26T13:43:06;2.50;;;2.30;;
18447;SDS011;9353;50.956;6.920;2022-08-26T13:45:33;6.28;;;2.90;;
18447;SDS011;9353;50.956;6.920;2022-08-26T13:48:01;5.13;;;2.33;;
18447;SDS011;9353;50.956;6.920;2022-08-26T13:50:29;4.30;;;2.45;;
18447;SDS011;9353;50.956;6.920;2022-08-26T13:52:56;2.63;;;2.30;;
18447;SDS011;9353;50.956;6.920;2022-08-26T13:55:23;8.63;;;2.50;;
18447;SDS011;9353;50.956;6.920;2022-08-26T13:57:51;3.70;;;2.58;;
18447;SDS011;9353;50.956;6.920;2022-08-26T14:00:18;3.55;;;2.50;;
18447;SDS011;9353;50.956;6.920;2022-08-26T14:02:45;3.92;;;2.63;;
18447;SDS011;9353;50.956;6.920;2022-08-26T14:05:14;4.70;;;2.67;;
18447;SDS011;9353;50.956;6.920;2022-08-26T14:07:41;3.40;;;3.08;;
18447;SDS011;9353;50.956;6.920;2022-08-26T14:10:08;4.97;;;2.58;;
18447;SDS011;9353;50.956;6.920;2022-08-26T14:12:36;5.82;;;2.45;;
18447;SDS011;9353;50.956;6.920;2022-08-26T14:15:04;6.60;;;2.63;;
18447;SDS011;9353;50.956;6.920;2022-08-26T14:17:32;4.57;;;2.75;;
18447;SDS011;9353;50.956;6.920;2022-08-26T14:19:59;6.43;;;2.80;;
18447;SDS011;9353;50.956;6.920;2022-08-26T14:22:27;4.22;;;3.10;;
18447;SDS011;9353;50.956;6.920;2022-08-26T14:24:55;4.70;;;2.42;;
18447;SDS011;9353;50.956;6.920;2022-08-26T14:27:22;4.43;;;2.30;;
18447;SDS011;9353;50.956;6.920;2022-08-26T14:29:49;5.53;;;2.42;;
18447;SDS011;9353;50.956;6.920;2022-08-26T14:32:18;3.97;;;2.38;;
18447;SDS011;9353;50.956;6.920;2022-08-26T14:34:46;6.35;;;2.45;;
18447;SDS011;9353;50.956;6.920;2022-08-26T14:37:14;6.82;;;3.28;;
18447;SDS011;9353;50.956;6.920;2022-08-26T14:39:43;5.65;;;2.15;;
18447;SDS011;9353;50.956;6.920;2022-08-26T14:42:10;5.40;;;2.30;;
18447;SDS011;9353;50.956;6.920;2022-08-26T14:44:41;4.38;;;2.45;;
18447;SDS011;9353;50.956;6.920;2022-08-26T14:47:08;2.92;;;2.70;;
18447;SDS011;9353;50.956;6.920;2022-08-26T14:49:36;7.05;;;2.60;;
18447;SDS011;9353;50.956;6.920;2022-08-26T14:52:03;5.38;;;2.88;;
18447;SDS011;9353;50.956;6.920;2022-08-26T14:54:30;3.83;;;2.22;;
18447;SDS011;9353;50.956;6.920;2022-08-26T14:56:58;5.10;;;3.17;;
18447;SDS011;9353;50.956;6.920;2022-08-26T14:59:26;3.28;;;2.28;;
18447;SDS011;9353;50.956;6.920;2022-08-26T15:01:54;4.43;;;2.38;;
18447;SDS011;9353;50.956;6.920;2022-08-26T15:04:22;5.40;;;2.67;;
18447;SDS011;9353;50.956;6.920;2022-08-26T15:06:49;3.03;;;2.47;;
18447;SDS011;9353;50.956;6.920;2022-08-26T15:09:16;2.90;;;2.53;;
18447;SDS011;9353;50.956;6.920;2022-08-26T15:11:43;3.53;;;2.55;;
18447;SDS011;9353;50.956;6.920;2022-08-26T15:14:12;4.60;;;3.78;;
18447;SDS011;9353;50.956;6.920;2022-08-26T15:16:39;5.00;;;3.70;;
18447;SDS011;9353;50.956;6.920;2022-08-26T15:19:06;6.20;;;3.85;;